Terminal Aerodrome Forecast
Issued by NWS

Home | Current Version | Previous Version | Text Only | Print | Product List | Glossary On
Versions: 1 2 3 4 5 6 7 8 9 10 11 12 13 14 15 16 17 18 19 20 21 22 23 24 25 26 27 28 29 30 31 32 33 34 35 36 37 38 39
000
FTUS45 KGJT 220433 AAA
TAFVEL
TAF AMD
KVEL 220433Z 2205/2224 33015G22KT P6SM -SHRA BKN090
     FM220500 35008KT P6SM VCSH SCT090 BKN200
     FM221400 VRB04KT P6SM BKN200
     FM221800 20006KT P6SM SCT120 BKN200=

USA.gov is the U.S. government's official web portal to all federal, state and local government web resources and services.